Time;durP1;ratioP1;P1;durP2;ratioP2;P2;SDS_P1;SDS_P2;PMS_P1;PMS_P2;Temp;Humidity;BMP_temperature;BMP_pressure;BME280_temperature;BME280_humidity;BME280_pressure;Samples;Min_cycle;Max_cycle;Signal;HPM_P1;HPM_P2
2023/08/14 00:01:41;;;;;;;9.60;3.53;;;22.60;79.90;;;;;;5021670;28;21075;-79
2023/08/14 00:04:13;;;;;;;7.60;3.73;;;22.60;80.00;;;;;;5021554;28;20507;-79
2023/08/14 00:06:41;;;;;;;7.67;3.60;;;22.60;80.00;;;;;;5031078;28;20460;-80
2023/08/14 00:09:10;;;;;;;6.83;3.30;;;22.60;80.00;;;;;;5026472;28;20475;-80
2023/08/14 00:11:38;;;;;;;7.53;3.83;;;22.60;80.10;;;;;;5024708;28;20459;-80
2023/08/14 00:14:06;;;;;;;6.97;3.77;;;22.60;80.10;;;;;;5039110;28;20480;-79
2023/08/14 00:16:34;;;;;;;6.50;4.17;;;22.60;80.10;;;;;;5028376;28;20449;-81
2023/08/14 00:19:02;;;;;;;6.50;3.60;;;22.60;80.10;;;;;;5027558;28;20467;-79
2023/08/14 00:21:31;;;;;;;6.83;3.80;;;22.60;80.20;;;;;;5022852;28;20459;-79
2023/08/14 00:23:59;;;;;;;8.03;4.23;;;22.60;80.30;;;;;;5021221;28;20462;-81
2023/08/14 00:26:27;;;;;;;5.70;3.30;;;22.60;80.30;;;;;;5028015;28;20535;-78
2023/08/14 00:28:55;;;;;;;10.10;4.23;;;22.60;80.40;;;;;;5024078;28;20459;-80
2023/08/14 00:31:23;;;;;;;6.73;3.80;;;22.60;80.40;;;;;;5023520;28;20982;-78
2023/08/14 00:33:52;;;;;;;14.60;4.70;;;22.50;80.40;;;;;;5045543;28;20460;-78
2023/08/14 00:36:20;;;;;;;7.20;4.33;;;22.50;80.30;;;;;;5021755;28;20562;-81
2023/08/14 00:38:49;;;;;;;6.70;3.97;;;22.50;80.40;;;;;;5018279;28;20511;-81
2023/08/14 00:41:18;;;;;;;7.83;3.83;;;22.40;80.50;;;;;;5023987;28;20451;-80
2023/08/14 00:43:46;;;;;;;7.63;4.70;;;22.40;80.60;;;;;;5025883;28;20468;-80
2023/08/14 00:46:15;;;;;;;10.10;4.83;;;22.40;80.60;;;;;;5024984;28;20460;-80
2023/08/14 00:48:43;;;;;;;8.73;5.07;;;22.30;80.70;;;;;;5025229;28;20470;-80
2023/08/14 00:51:12;;;;;;;9.40;4.30;;;22.30;80.90;;;;;;5026597;28;20580;-78
2023/08/14 00:53:40;;;;;;;8.93;4.43;;;22.30;81.00;;;;;;5021719;28;20458;-78
2023/08/14 00:56:09;;;;;;;10.97;4.63;;;22.30;81.00;;;;;;5022129;28;20938;-80
2023/08/14 00:58:38;;;;;;;6.63;3.97;;;22.30;81.20;;;;;;5022204;28;20463;-80
2023/08/14 01:01:08;;;;;;;9.47;4.50;;;22.20;81.20;;;;;;5024058;28;20492;-79
2023/08/14 01:03:37;;;;;;;9.50;4.10;;;22.20;81.30;;;;;;5020273;28;20501;-80
2023/08/14 01:06:05;;;;;;;8.60;4.10;;;22.20;81.40;;;;;;5022823;28;20547;-79
2023/08/14 01:08:34;;;;;;;9.90;4.30;;;22.30;81.40;;;;;;5028659;28;20459;-80
2023/08/14 01:11:09;;;;;;;9.60;3.93;;;22.30;81.30;;;;;;5029513;28;20475;-80
2023/08/14 01:13:47;;;;;;;8.07;4.47;;;22.30;81.30;;;;;;5020568;28;21030;-79
2023/08/14 01:16:20;;;;;;;8.87;4.13;;;22.30;81.40;;;;;;5023460;28;20915;-79
2023/08/14 01:18:49;;;;;;;13.00;4.73;;;22.30;81.30;;;;;;5019421;28;20455;-79
2023/08/14 01:21:36;;;;;;;11.47;4.50;;;22.30;81.20;;;;;;5019028;28;20541;-79
2023/08/14 01:24:17;;;;;;;8.03;4.43;;;22.30;81.10;;;;;;5020288;28;21032;-79
2023/08/14 01:26:48;;;;;;;8.50;4.60;;;22.30;81.10;;;;;;5053724;28;21063;-80
2023/08/14 01:29:16;;;;;;;8.60;4.80;;;22.20;81.10;;;;;;5025510;28;20552;-79
2023/08/14 01:31:45;;;;;;;7.07;3.83;;;22.20;81.10;;;;;;5023268;28;20475;-80
2023/08/14 01:34:13;;;;;;;10.27;4.60;;;22.20;81.10;;;;;;5022965;28;20504;-79
2023/08/14 01:36:51;;;;;;;12.97;4.07;;;22.20;81.20;;;;;;5027541;28;20965;-79
2023/08/14 01:39:25;;;;;;;8.00;4.20;;;22.20;81.20;;;;;;5025996;28;20486;-79
2023/08/14 01:42:06;;;;;;;8.40;3.93;;;22.20;81.20;;;;;;5021853;28;20495;-80
2023/08/14 01:44:35;;;;;;;7.63;4.13;;;22.20;81.10;;;;;;5021041;28;20467;-78
2023/08/14 01:47:06;;;;;;;9.60;4.50;;;22.20;81.10;;;;;;5017382;28;20970;-79
2023/08/14 01:49:36;;;;;;;10.10;4.17;;;22.20;81.10;;;;;;5019798;28;20455;-79
2023/08/14 01:52:06;;;;;;;12.00;4.17;;;22.20;81.10;;;;;;5020471;28;20843;-79
2023/08/14 01:54:34;;;;;;;7.10;3.67;;;22.10;81.10;;;;;;5021409;28;21031;-79
2023/08/14 01:57:03;;;;;;;7.13;4.20;;;22.10;81.10;;;;;;5020131;28;20452;-80
2023/08/14 01:59:41;;;;;;;9.60;4.97;;;22.20;81.10;;;;;;5021269;28;20498;-79
2023/08/14 02:02:10;;;;;;;11.50;4.37;;;22.10;81.20;;;;;;5026278;28;20556;-79
2023/08/14 02:04:40;;;;;;;10.47;4.33;;;22.10;81.10;;;;;;5015798;28;20550;-79
2023/08/14 02:07:09;;;;;;;10.00;4.93;;;22.10;81.20;;;;;;5020039;28;20501;-79
2023/08/14 02:09:39;;;;;;;8.13;4.47;;;22.00;81.30;;;;;;5016194;28;20463;-79
2023/08/14 02:12:09;;;;;;;11.50;5.53;;;22.00;81.50;;;;;;5021603;28;20589;-78
2023/08/14 02:14:37;;;;;;;9.90;4.40;;;22.10;81.40;;;;;;5024791;28;20490;-79
2023/08/14 02:17:05;;;;;;;11.53;4.73;;;22.00;81.50;;;;;;5017356;28;20460;-79
2023/08/14 02:19:33;;;;;;;10.53;4.67;;;22.00;81.50;;;;;;5028017;28;20804;-79
2023/08/14 02:22:02;;;;;;;9.73;4.60;;;21.90;81.60;;;;;;5024750;28;20440;-79
2023/08/14 02:24:30;;;;;;;13.30;4.20;;;21.90;81.80;;;;;;5027348;28;20451;-79
2023/08/14 02:26:58;;;;;;;7.23;4.10;;;22.00;81.80;;;;;;5016450;28;20982;-80
2023/08/14 02:29:27;;;;;;;8.30;4.57;;;22.00;81.80;;;;;;5023324;28;20487;-79
2023/08/14 02:31:58;;;;;;;10.17;4.60;;;22.00;81.70;;;;;;5016881;28;20510;-80
2023/08/14 02:34:34;;;;;;;11.33;4.40;;;21.90;81.80;;;;;;5020208;28;21020;-78
2023/08/14 02:37:02;;;;;;;11.80;4.50;;;22.00;81.80;;;;;;5017950;28;20468;-81
2023/08/14 02:39:30;;;;;;;8.40;4.43;;;22.00;81.80;;;;;;5018747;28;20554;-80
2023/08/14 02:41:58;;;;;;;10.17;4.97;;;22.00;81.80;;;;;;5017149;28;20539;-78
2023/08/14 02:44:28;;;;;;;10.90;4.90;;;22.00;81.80;;;;;;5018677;28;20464;-79
2023/08/14 02:46:58;;;;;;;10.13;4.83;;;21.90;81.80;;;;;;5022107;28;20514;-79
2023/08/14 02:49:26;;;;;;;14.00;4.80;;;21.90;81.80;;;;;;5032576;28;20986;-80
2023/08/14 02:51:54;;;;;;;10.37;3.63;;;21.90;81.80;;;;;;5055468;28;20500;-79
2023/08/14 02:54:22;;;;;;;6.90;4.20;;;21.90;81.80;;;;;;5036635;28;20454;-79
2023/08/14 02:56:50;;;;;;;9.30;4.70;;;21.90;81.80;;;;;;5027550;28;20452;-79
2023/08/14 02:59:22;;;;;;;9.00;4.40;;;21.90;81.80;;;;;;5060973;28;20463;-79
2023/08/14 03:01:51;;;;;;;10.03;4.57;;;21.90;81.80;;;;;;5061036;28;21134;-79
2023/08/14 03:04:19;;;;;;;7.27;4.30;;;21.90;81.80;;;;;;5062202;28;20462;-80
2023/08/14 03:06:47;;;;;;;7.23;3.97;;;21.90;81.80;;;;;;5031741;28;20459;-79
2023/08/14 03:09:16;;;;;;;11.03;4.57;;;21.90;81.90;;;;;;5025034;28;20509;-79
2023/08/14 03:11:44;;;;;;;8.00;4.37;;;21.90;81.90;;;;;;5036024;28;20498;-78
2023/08/14 03:14:12;;;;;;;8.77;4.57;;;21.90;81.80;;;;;;5032302;28;20543;-79
2023/08/14 03:16:40;;;;;;;8.50;4.63;;;21.90;81.80;;;;;;5037280;28;20464;-78
2023/08/14 03:19:09;;;;;;;12.27;5.47;;;21.90;81.80;;;;;;5028612;28;20460;-81
2023/08/14 03:21:38;;;;;;;9.80;5.00;;;21.90;81.80;;;;;;5024857;28;20474;-78
2023/08/14 03:24:06;;;;;;;12.00;5.03;;;21.90;81.90;;;;;;5025040;28;20539;-79
2023/08/14 03:26:34;;;;;;;13.13;4.67;;;21.90;81.90;;;;;;5020507;28;20456;-81
2023/08/14 03:29:03;;;;;;;8.47;4.70;;;21.90;81.90;;;;;;5066739;28;20456;-79
2023/08/14 03:31:31;;;;;;;11.90;4.33;;;21.90;82.00;;;;;;5024563;28;20475;-79
2023/08/14 03:34:01;;;;;;;11.20;4.67;;;21.90;82.00;;;;;;5030573;28;20458;-79
2023/08/14 03:36:32;;;;;;;7.93;4.67;;;21.90;82.00;;;;;;5035093;28;20550;-79
2023/08/14 03:39:01;;;;;;;9.80;4.70;;;21.90;82.00;;;;;;5031097;28;20478;-79
2023/08/14 03:41:29;;;;;;;11.63;5.40;;;21.90;82.00;;;;;;5049088;28;20451;-78
2023/08/14 03:44:00;;;;;;;14.67;5.30;;;21.90;81.90;;;;;;5065325;28;21086;-77
2023/08/14 03:46:28;;;;;;;9.33;4.70;;;21.90;82.00;;;;;;5026639;28;23563;-79
2023/08/14 03:48:56;;;;;;;9.63;5.47;;;21.80;82.10;;;;;;5059830;28;20468;-78
2023/08/14 03:51:24;;;;;;;8.50;4.97;;;21.80;82.10;;;;;;5031030;28;20985;-78
2023/08/14 03:53:54;;;;;;;8.83;5.43;;;21.80;82.10;;;;;;5027611;28;20464;-78
2023/08/14 03:56:21;;;;;;;9.33;5.20;;;21.70;82.20;;;;;;5025036;28;20475;-78
2023/08/14 03:58:49;;;;;;;13.50;5.40;;;21.70;82.30;;;;;;5027117;28;20542;-79
2023/08/14 04:01:17;;;;;;;10.73;4.60;;;21.70;82.30;;;;;;5024625;28;20807;-78
2023/08/14 04:03:46;;;;;;;11.53;4.73;;;21.70;82.40;;;;;;5019552;28;20548;-78
2023/08/14 04:06:14;;;;;;;12.00;5.27;;;21.70;82.50;;;;;;5024192;28;20455;-78
2023/08/14 04:08:42;;;;;;;10.17;4.77;;;21.70;82.40;;;;;;5034289;28;20451;-78
2023/08/14 04:11:12;;;;;;;11.10;4.90;;;21.70;82.40;;;;;;5021678;28;20452;-79
2023/08/14 04:13:40;;;;;;;14.53;5.07;;;21.80;82.40;;;;;;5025095;28;20991;-80
2023/08/14 04:16:08;;;;;;;8.50;4.53;;;21.80;82.40;;;;;;5018414;28;20460;-78
2023/08/14 04:18:37;;;;;;;8.40;4.43;;;21.80;82.40;;;;;;5029089;28;20472;-80
2023/08/14 04:21:05;;;;;;;9.40;4.63;;;21.80;82.40;;;;;;5028033;28;20811;-78
2023/08/14 04:23:33;;;;;;;11.80;5.47;;;21.80;82.30;;;;;;5025021;28;20462;-78
2023/08/14 04:26:01;;;;;;;7.53;4.67;;;21.80;82.30;;;;;;5023504;28;20969;-79
2023/08/14 04:28:30;;;;;;;11.23;4.73;;;21.80;82.30;;;;;;5053599;28;20467;-78
2023/08/14 04:30:59;;;;;;;8.03;4.63;;;21.80;82.30;;;;;;5040560;28;20460;-80
2023/08/14 04:33:27;;;;;;;18.03;5.10;;;21.80;82.20;;;;;;5024196;28;20574;-78
2023/08/14 04:35:55;;;;;;;8.90;4.97;;;21.80;82.20;;;;;;5025606;28;20462;-79
2023/08/14 04:38:24;;;;;;;9.47;4.80;;;21.80;82.20;;;;;;5028558;28;20459;-79
2023/08/14 04:40:53;;;;;;;15.27;5.27;;;21.80;82.20;;;;;;5019182;28;20475;-80
2023/08/14 04:43:21;;;;;;;9.80;4.63;;;21.70;82.10;;;;;;5025770;28;20463;-80
2023/08/14 04:45:51;;;;;;;7.50;4.80;;;21.70;82.20;;;;;;5025527;28;20494;-79
2023/08/14 04:48:19;;;;;;;15.00;4.67;;;21.70;82.30;;;;;;5021962;28;20978;-79
2023/08/14 04:50:47;;;;;;;9.20;4.73;;;21.70;82.40;;;;;;5037308;28;21807;-79
2023/08/14 04:53:15;;;;;;;11.60;4.20;;;21.70;82.40;;;;;;5030406;28;20566;-79
2023/08/14 04:55:43;;;;;;;9.93;4.47;;;21.70;82.40;;;;;;5033348;28;20554;-79
2023/08/14 04:58:12;;;;;;;8.80;4.10;;;21.70;82.30;;;;;;5027853;28;20461;-79
2023/08/14 05:00:40;;;;;;;11.87;4.90;;;21.80;82.30;;;;;;5027519;28;20475;-80
2023/08/14 05:03:12;;;;;;;10.70;5.10;;;21.80;82.30;;;;;;5056155;28;20916;-79
2023/08/14 05:05:40;;;;;;;8.53;4.50;;;21.80;82.30;;;;;;5029315;28;20472;-80
2023/08/14 05:08:08;;;;;;;12.93;5.33;;;21.80;82.30;;;;;;5027048;28;20610;-79
2023/08/14 05:10:36;;;;;;;9.63;4.80;;;21.80;82.30;;;;;;5024416;28;20463;-78
2023/08/14 05:13:04;;;;;;;10.70;5.67;;;21.80;82.30;;;;;;5021855;28;20832;-79
2023/08/14 05:15:33;;;;;;;10.07;4.50;;;21.90;82.50;;;;;;5026589;28;21167;-80
2023/08/14 05:18:02;;;;;;;9.33;4.60;;;22.10;82.40;;;;;;5037310;28;20548;-80
2023/08/14 05:20:34;;;;;;;9.40;4.40;;;22.20;82.40;;;;;;5024097;28;20552;-80
2023/08/14 05:23:03;;;;;;;9.00;4.60;;;22.50;81.90;;;;;;5028556;28;20518;-80
2023/08/14 05:25:31;;;;;;;7.30;4.43;;;22.60;81.90;;;;;;5030324;28;20547;-80
2023/08/14 05:27:59;;;;;;;7.93;4.00;;;22.90;81.70;;;;;;5053313;28;20481;-78
2023/08/14 05:30:27;;;;;;;11.73;4.60;;;23.30;82.10;;;;;;5028549;28;20555;-78
2023/08/14 05:32:55;;;;;;;13.53;3.63;;;24.00;81.40;;;;;;5029555;28;20477;-79
2023/08/14 05:35:24;;;;;;;11.33;4.90;;;24.80;80.30;;;;;;5022770;28;20459;-80
2023/08/14 05:37:58;;;;;;;9.77;4.30;;;25.50;79.30;;;;;;5028462;28;20454;-79
2023/08/14 05:40:27;;;;;;;9.03;4.10;;;26.50;77.90;;;;;;5023337;28;20979;-79
2023/08/14 05:43:05;;;;;;;8.00;4.40;;;27.30;76.70;;;;;;5030273;28;20451;-80
2023/08/14 05:45:35;;;;;;;8.17;4.30;;;28.00;74.80;;;;;;5035817;28;20463;-79
2023/08/14 05:48:04;;;;;;;7.67;3.90;;;28.70;74.00;;;;;;5026327;28;20463;-80
2023/08/14 05:50:33;;;;;;;12.43;4.23;;;29.40;72.60;;;;;;5024371;28;20463;-79
2023/08/14 05:53:04;;;;;;;12.23;4.20;;;30.10;70.90;;;;;;5024351;28;20856;-79
2023/08/14 05:55:34;;;;;;;9.40;4.70;;;30.70;69.50;;;;;;5024522;28;20468;-79
2023/08/14 05:58:03;;;;;;;10.13;3.83;;;31.20;67.90;;;;;;5022387;28;20456;-79
2023/08/14 06:00:31;;;;;;;17.57;4.67;;;31.70;66.80;;;;;;5053514;28;20475;-79
2023/08/14 06:02:59;;;;;;;8.97;4.37;;;31.80;65.00;;;;;;5026126;28;20478;-79
2023/08/14 06:05:28;;;;;;;12.80;4.70;;;31.30;64.10;;;;;;5021861;28;20539;-79
2023/08/14 06:07:57;;;;;;;8.13;4.60;;;30.20;63.90;;;;;;5028467;28;20880;-79
2023/08/14 06:10:27;;;;;;;7.00;4.37;;;29.00;64.70;;;;;;5023160;28;20485;-78
2023/08/14 06:12:55;;;;;;;10.27;5.33;;;27.90;65.80;;;;;;5020908;28;20471;-78
2023/08/14 06:15:24;;;;;;;12.53;4.70;;;27.00;67.00;;;;;;5022446;28;20455;-79
2023/08/14 06:17:53;;;;;;;10.07;4.80;;;26.30;68.10;;;;;;5025861;28;21151;-79
2023/08/14 06:20:21;;;;;;;19.90;5.53;;;25.70;69.10;;;;;;5013138;28;20495;-78
2023/08/14 06:22:49;;;;;;;13.10;5.20;;;25.20;70.00;;;;;;5024849;28;20509;-79
2023/08/14 06:25:20;;;;;;;12.50;5.60;;;24.90;70.80;;;;;;5053447;28;20464;-78
2023/08/14 06:27:50;;;;;;;15.07;5.70;;;24.60;71.40;;;;;;5018133;28;20475;-79
2023/08/14 06:30:20;;;;;;;8.57;5.57;;;24.40;72.10;;;;;;5025739;28;20463;-79
2023/08/14 06:32:50;;;;;;;9.93;4.93;;;24.20;72.60;;;;;;5018923;28;20472;-78
2023/08/14 06:35:23;;;;;;;8.90;4.43;;;24.00;73.20;;;;;;5025852;28;20470;-78
2023/08/14 06:37:54;;;;;;;13.33;4.80;;;23.90;73.60;;;;;;5022064;28;20465;-79
2023/08/14 06:40:23;;;;;;;9.93;4.80;;;23.80;74.00;;;;;;5018054;28;20922;-79
2023/08/14 06:42:55;;;;;;;11.43;4.67;;;23.70;74.50;;;;;;5033518;28;20456;-79
2023/08/14 06:45:24;;;;;;;11.13;5.20;;;23.60;74.80;;;;;;5025654;28;20484;-79
2023/08/14 06:47:52;;;;;;;10.67;4.97;;;23.50;75.10;;;;;;5027923;28;20468;-79
2023/08/14 06:50:20;;;;;;;11.57;5.37;;;23.50;75.50;;;;;;5023723;28;20452;-79
2023/08/14 06:52:48;;;;;;;11.67;4.63;;;23.40;75.80;;;;;;5021062;28;20995;-79
2023/08/14 06:55:16;;;;;;;6.87;4.80;;;23.40;76.10;;;;;;5022388;28;20451;-79
2023/08/14 06:57:44;;;;;;;7.93;4.70;;;23.40;76.40;;;;;;5026759;28;20546;-78
2023/08/14 07:00:19;;;;;;;9.20;4.50;;;23.40;76.70;;;;;;5025664;28;20933;-79
2023/08/14 07:02:48;;;;;;;8.67;4.87;;;23.40;77.00;;;;;;5024629;28;20456;-78
2023/08/14 07:05:18;;;;;;;10.60;5.43;;;23.40;77.10;;;;;;5023488;28;20456;-78
2023/08/14 07:07:47;;;;;;;10.00;5.13;;;23.40;77.40;;;;;;5022348;28;20467;-79
2023/08/14 07:10:18;;;;;;;11.30;4.70;;;23.40;77.70;;;;;;5016661;28;20543;-79
2023/08/14 07:12:48;;;;;;;7.97;5.40;;;23.50;77.90;;;;;;5040511;28;20622;-79
2023/08/14 07:15:16;;;;;;;11.57;5.17;;;23.50;78.00;;;;;;5025311;28;20457;-79
2023/08/14 07:17:45;;;;;;;8.67;5.20;;;23.50;78.10;;;;;;5021373;28;20512;-79
2023/08/14 07:20:13;;;;;;;7.60;4.50;;;23.60;78.40;;;;;;5020226;28;20439;-79
2023/08/14 07:22:42;;;;;;;14.30;5.60;;;23.60;78.50;;;;;;5023085;28;20463;-79
2023/08/14 07:25:11;;;;;;;8.47;5.10;;;23.70;78.70;;;;;;5029773;28;20455;-79
2023/08/14 07:27:41;;;;;;;9.10;4.57;;;23.70;78.80;;;;;;5020921;28;21096;-79
2023/08/14 07:30:10;;;;;;;8.27;5.33;;;23.80;79.00;;;;;;5025864;28;20532;-78
2023/08/14 07:32:38;;;;;;;9.30;5.30;;;23.80;79.00;;;;;;5059704;28;20467;-79
2023/08/14 07:35:08;;;;;;;12.63;5.63;;;23.80;79.10;;;;;;5053684;28;20554;-78
2023/08/14 07:37:38;;;;;;;8.57;4.73;;;23.90;79.20;;;;;;5024272;28;20547;-78
2023/08/14 07:40:07;;;;;;;10.50;5.17;;;23.90;79.30;;;;;;5031992;28;20475;-78
2023/08/14 07:42:35;;;;;;;10.77;5.43;;;24.00;79.40;;;;;;5024285;28;20454;-78
2023/08/14 07:45:03;;;;;;;10.40;5.57;;;24.00;79.50;;;;;;5020714;28;20489;-78
2023/08/14 07:47:31;;;;;;;9.63;5.57;;;24.00;79.60;;;;;;5053732;28;20780;-78
2023/08/14 07:49:59;;;;;;;9.33;6.10;;;24.00;79.70;;;;;;5028952;28;20499;-78
2023/08/14 07:52:30;;;;;;;8.17;5.57;;;24.00;79.90;;;;;;5029010;28;20455;-79
2023/08/14 07:54:58;;;;;;;9.93;5.20;;;24.10;80.00;;;;;;5025446;28;20582;-78
2023/08/14 07:57:26;;;;;;;9.83;5.13;;;24.20;80.20;;;;;;5025351;28;20539;-78
2023/08/14 07:59:55;;;;;;;9.30;5.03;;;24.20;80.20;;;;;;5027854;28;20459;-78
2023/08/14 08:02:23;;;;;;;7.30;4.73;;;24.30;80.20;;;;;;5021629;28;20573;-80
2023/08/14 08:04:51;;;;;;;13.63;5.83;;;24.30;80.30;;;;;;5030866;28;20475;-79
2023/08/14 08:07:19;;;;;;;8.83;4.80;;;24.40;80.40;;;;;;5023977;28;20510;-79
2023/08/14 08:09:54;;;;;;;8.90;5.00;;;24.40;80.40;;;;;;5020633;28;20459;-78
2023/08/14 08:12:22;;;;;;;12.43;5.20;;;24.50;80.50;;;;;;5026410;28;20460;-79
2023/08/14 08:14:50;;;;;;;14.40;6.07;;;24.50;80.60;;;;;;5031109;28;20566;-79
2023/08/14 08:17:18;;;;;;;8.90;5.70;;;24.50;80.70;;;;;;5024320;28;20964;-79
2023/08/14 08:19:47;;;;;;;8.37;4.73;;;24.60;80.90;;;;;;5054964;28;20488;-77
2023/08/14 08:22:15;;;;;;;8.93;5.23;;;24.60;80.90;;;;;;5026907;28;20455;-79
2023/08/14 08:24:43;;;;;;;8.63;5.17;;;24.70;80.90;;;;;;5024804;28;20554;-80
2023/08/14 08:27:13;;;;;;;12.23;5.27;;;24.70;81.00;;;;;;5025360;28;20463;-77
2023/08/14 08:29:41;;;;;;;8.57;5.00;;;24.80;81.10;;;;;;5016264;28;20505;-79
2023/08/14 08:32:09;;;;;;;8.37;5.17;;;24.80;81.10;;;;;;5019353;28;20969;-78
2023/08/14 08:34:37;;;;;;;11.30;5.70;;;24.90;81.10;;;;;;5027668;28;20514;-77
2023/08/14 08:37:06;;;;;;;8.30;5.43;;;24.90;81.10;;;;;;5023937;28;20452;-76
2023/08/14 08:39:34;;;;;;;9.53;5.30;;;25.00;81.10;;;;;;5024542;28;20550;-79
2023/08/14 08:42:03;;;;;;;8.73;5.30;;;25.10;81.00;;;;;;5026917;28;20704;-79
2023/08/14 08:44:36;;;;;;;9.27;5.47;;;25.10;80.90;;;;;;5030445;28;20530;-77
2023/08/14 08:47:08;;;;;;;15.87;6.07;;;25.10;80.90;;;;;;5029718;28;20959;-79
2023/08/14 08:49:36;;;;;;;12.83;5.93;;;25.10;80.80;;;;;;5024688;28;20460;-79
2023/08/14 08:52:06;;;;;;;9.73;5.73;;;25.20;80.70;;;;;;5031139;28;20446;-79
2023/08/14 08:54:35;;;;;;;10.67;5.47;;;25.20;80.70;;;;;;5033381;28;20476;-79
2023/08/14 08:57:05;;;;;;;7.60;5.10;;;25.20;80.70;;;;;;5023556;28;20851;-78
2023/08/14 08:59:35;;;;;;;11.70;5.50;;;25.20;80.70;;;;;;5025114;28;20541;-79
2023/08/14 09:02:03;;;;;;;9.03;6.07;;;25.20;80.80;;;;;;5026275;28;20487;-79
2023/08/14 09:04:31;;;;;;;10.60;6.07;;;25.20;80.80;;;;;;5030831;28;20511;-78
2023/08/14 09:07:01;;;;;;;10.73;5.87;;;25.30;80.80;;;;;;5027680;28;20533;-79
2023/08/14 09:09:29;;;;;;;10.47;5.23;;;25.40;80.70;;;;;;5027215;28;20517;-80
2023/08/14 09:11:57;;;;;;;10.10;5.40;;;25.40;80.80;;;;;;5017009;28;20879;-78
2023/08/14 09:14:25;;;;;;;11.90;5.63;;;25.40;80.90;;;;;;5026103;28;20475;-77
2023/08/14 09:16:55;;;;;;;8.10;5.17;;;25.50;80.90;;;;;;5018345;28;20464;-80
2023/08/14 09:19:23;;;;;;;10.83;5.50;;;25.60;80.80;;;;;;5026207;28;20454;-79
2023/08/14 09:21:51;;;;;;;9.30;5.43;;;25.70;80.60;;;;;;5017745;28;20459;-79
2023/08/14 09:24:19;;;;;;;7.00;4.57;;;25.80;80.50;;;;;;5022553;28;20454;-79
2023/08/14 09:26:49;;;;;;;7.90;4.40;;;25.80;80.40;;;;;;5054795;28;20451;-79
2023/08/14 09:29:17;;;;;;;9.50;4.83;;;25.90;80.10;;;;;;5020730;28;20502;-79
2023/08/14 09:31:46;;;;;;;8.60;4.10;;;26.00;79.90;;;;;;5016627;28;21114;-79
2023/08/14 09:34:19;;;;;;;7.53;4.00;;;26.00;79.60;;;;;;5021677;28;20479;-79
2023/08/14 09:36:47;;;;;;;7.30;3.97;;;26.10;79.20;;;;;;5022732;28;20505;-79
2023/08/14 09:39:17;;;;;;;6.87;4.27;;;26.20;79.00;;;;;;5027362;28;20467;-80
2023/08/14 09:41:48;;;;;;;8.10;4.30;;;26.20;78.80;;;;;;5025589;28;20466;-79
2023/08/14 09:44:19;;;;;;;7.40;4.30;;;26.20;78.50;;;;;;5025857;28;20471;-80
2023/08/14 09:46:51;;;;;;;10.70;4.80;;;26.30;78.30;;;;;;5020722;28;20459;-79
2023/08/14 09:49:21;;;;;;;6.57;3.63;;;26.30;78.40;;;;;;5030109;28;20480;-78
2023/08/14 09:51:56;;;;;;;10.10;4.53;;;26.30;78.50;;;;;;5020711;28;20980;-78
2023/08/14 09:54:34;;;;;;;7.33;4.20;;;26.40;78.30;;;;;;5030185;28;20987;-78
2023/08/14 09:57:05;;;;;;;7.30;3.67;;;26.50;78.00;;;;;;5023498;28;20464;-79
2023/08/14 09:59:36;;;;;;;6.30;3.97;;;26.50;78.00;;;;;;5024503;28;20474;-80
2023/08/14 10:02:11;;;;;;;7.17;3.77;;;26.60;77.90;;;;;;5015687;28;20489;-78
2023/08/14 10:04:43;;;;;;;9.57;4.17;;;26.60;77.50;;;;;;5027903;28;20513;-79
2023/08/14 10:07:13;;;;;;;6.60;3.53;;;26.70;77.40;;;;;;5019460;28;20452;-79
2023/08/14 10:09:45;;;;;;;7.53;3.27;;;26.80;77.10;;;;;;5038909;28;20451;-79
2023/08/14 10:12:16;;;;;;;6.73;3.47;;;26.80;76.60;;;;;;5032076;28;20448;-79
2023/08/14 10:14:48;;;;;;;6.07;3.53;;;26.90;76.50;;;;;;5019234;28;20487;-79
2023/08/14 10:17:21;;;;;;;7.70;3.53;;;27.00;76.30;;;;;;5018017;28;21146;-78
2023/08/14 10:19:53;;;;;;;7.50;3.83;;;27.10;76.10;;;;;;5026208;28;20477;-79
2023/08/14 10:22:21;;;;;;;6.90;3.67;;;27.20;75.80;;;;;;5015420;28;20465;-79
2023/08/14 10:24:52;;;;;;;9.83;4.07;;;27.20;75.70;;;;;;5027835;28;20534;-79
2023/08/14 10:27:20;;;;;;;7.57;3.60;;;27.30;75.40;;;;;;5016794;28;20837;-78
2023/08/14 10:29:49;;;;;;;8.73;3.70;;;27.30;75.20;;;;;;5020387;28;20501;-78
2023/08/14 10:32:18;;;;;;;6.53;3.33;;;27.40;75.10;;;;;;5022278;28;20534;-78
2023/08/14 10:34:49;;;;;;;6.50;3.07;;;27.40;74.90;;;;;;5023155;28;20988;-79
2023/08/14 10:37:39;;;;;;;7.50;3.27;;;27.50;74.60;;;;;;5025702;28;20832;-79
2023/08/14 10:40:15;;;;;;;6.80;3.50;;;27.50;74.10;;;;;;5018488;28;20612;-79
2023/08/14 10:42:46;;;;;;;6.87;3.40;;;27.60;73.80;;;;;;5017137;28;20462;-79
2023/08/14 10:45:19;;;;;;;5.50;3.03;;;27.60;73.70;;;;;;5016127;28;20506;-79
2023/08/14 10:47:47;;;;;;;6.50;3.20;;;27.70;73.40;;;;;;5020195;28;20539;-80
2023/08/14 10:50:18;;;;;;;5.70;3.53;;;27.70;73.20;;;;;;5022051;28;20542;-79
2023/08/14 10:52:48;;;;;;;6.27;3.00;;;27.80;73.00;;;;;;5019590;28;20477;-79
2023/08/14 10:55:18;;;;;;;7.83;3.40;;;27.80;72.80;;;;;;5017242;28;20551;-79
2023/08/14 10:57:47;;;;;;;8.60;3.47;;;27.80;72.80;;;;;;5049905;28;20452;-80
2023/08/14 11:00:22;;;;;;;8.27;3.13;;;27.90;72.50;;;;;;5019908;28;20468;-79
2023/08/14 11:02:51;;;;;;;6.90;3.30;;;27.90;72.40;;;;;;5019636;28;20455;-80
2023/08/14 11:05:21;;;;;;;12.33;3.00;;;27.90;72.40;;;;;;5024543;28;20451;-82
2023/08/14 11:08:01;;;;;;;6.90;3.37;;;28.00;72.50;;;;;;5026718;28;20447;-82
2023/08/14 11:10:29;;;;;;;5.33;2.70;;;28.10;72.20;;;;;;5037526;28;20506;-83
2023/08/14 11:12:59;;;;;;;10.13;3.57;;;28.20;72.00;;;;;;5020803;28;20491;-83
2023/08/14 11:15:30;;;;;;;8.80;3.53;;;28.20;71.60;;;;;;5018589;28;20998;-83
2023/08/14 11:17:59;;;;;;;7.53;2.97;;;28.30;71.50;;;;;;5022638;28;20478;-84
2023/08/14 11:20:30;;;;;;;5.60;2.93;;;28.30;71.30;;;;;;5028910;28;20451;-83
2023/08/14 11:23:00;;;;;;;8.00;2.70;;;28.40;71.10;;;;;;5027614;28;20456;-82
2023/08/14 11:25:28;;;;;;;10.53;3.27;;;28.40;71.20;;;;;;5023009;28;20444;-82
2023/08/14 11:27:57;;;;;;;6.33;3.10;;;28.40;71.10;;;;;;5024804;28;20459;-83
2023/08/14 11:30:26;;;;;;;8.63;3.00;;;28.40;71.10;;;;;;5026620;28;20459;-83
2023/08/14 11:32:55;;;;;;;15.90;3.30;;;28.50;71.00;;;;;;5024104;28;20451;-83
2023/08/14 11:35:28;;;;;;;6.73;3.27;;;28.50;70.90;;;;;;5027937;28;20471;-83
2023/08/14 11:37:56;;;;;;;8.23;3.30;;;28.60;70.80;;;;;;5025940;28;20466;-83
2023/08/14 11:40:26;;;;;;;6.73;3.30;;;28.60;70.50;;;;;;5029797;28;20474;-83
2023/08/14 11:42:56;;;;;;;7.70;3.10;;;28.60;70.20;;;;;;5024967;28;20525;-83
2023/08/14 11:45:25;;;;;;;7.23;2.90;;;28.60;70.10;;;;;;5022035;28;20792;-83
2023/08/14 11:47:53;;;;;;;6.73;3.00;;;28.60;70.00;;;;;;5023762;28;20974;-82
2023/08/14 11:50:24;;;;;;;8.30;3.57;;;28.60;70.00;;;;;;5029183;28;20521;-82
2023/08/14 11:52:52;;;;;;;6.03;2.70;;;28.60;69.90;;;;;;5029389;28;20459;-82
2023/08/14 11:55:21;;;;;;;7.63;3.10;;;28.60;69.90;;;;;;5023443;28;20463;-81
2023/08/14 11:57:51;;;;;;;7.23;3.10;;;28.60;69.80;;;;;;5062124;28;20482;-82
2023/08/14 12:00:21;;;;;;;7.30;2.90;;;28.60;69.50;;;;;;5022195;28;20460;-82
2023/08/14 12:03:00;;;;;;;9.63;3.50;;;28.60;69.60;;;;;;5021906;28;20455;-82
2023/08/14 12:05:28;;;;;;;6.40;3.30;;;28.60;69.80;;;;;;5040303;28;20471;-82
2023/08/14 12:08:00;;;;;;;8.03;3.23;;;28.60;69.90;;;;;;5032239;28;20439;-82
2023/08/14 12:10:32;;;;;;;9.30;2.80;;;28.70;69.90;;;;;;5025362;28;20997;-82
2023/08/14 12:13:01;;;;;;;6.70;3.43;;;28.70;69.80;;;;;;5025620;28;20500;-82
2023/08/14 12:15:31;;;;;;;7.57;3.17;;;28.70;69.90;;;;;;5021642;28;21677;-82
2023/08/14 12:18:00;;;;;;;7.70;3.20;;;28.80;69.80;;;;;;5026932;28;20460;-82
2023/08/14 12:20:33;;;;;;;7.93;3.00;;;28.90;69.90;;;;;;5030079;28;20834;-83
2023/08/14 12:23:12;;;;;;;8.07;3.17;;;29.00;69.60;;;;;;5029488;28;20470;-83
2023/08/14 12:25:40;;;;;;;6.37;3.03;;;29.00;69.40;;;;;;5027338;28;20448;-82
2023/08/14 12:28:10;;;;;;;6.20;2.93;;;29.00;69.10;;;;;;5029249;28;20467;-83
2023/08/14 12:30:38;;;;;;;5.57;2.80;;;29.00;69.00;;;;;;5023378;28;20474;-82
2023/08/14 12:33:07;;;;;;;6.73;3.07;;;29.00;69.10;;;;;;5020068;28;20546;-83
2023/08/14 12:40:10;;;;;;;7.47;3.00;;;29.10;68.60;;;;;;5017138;28;20485;-83
2023/08/14 12:42:42;;;;;;;6.10;3.30;;;29.10;68.80;;;;;;5054794;28;20469;-83
2023/08/14 12:45:12;;;;;;;7.33;3.00;;;29.10;68.80;;;;;;5024286;28;20469;-83
2023/08/14 12:47:40;;;;;;;6.80;3.00;;;29.10;68.70;;;;;;5022439;28;20492;-83
2023/08/14 12:50:08;;;;;;;6.23;3.40;;;29.20;68.30;;;;;;5024790;28;20463;-83
2023/08/14 12:52:36;;;;;;;7.00;3.40;;;29.20;68.10;;;;;;5029832;28;20466;-82
2023/08/14 12:55:05;;;;;;;7.40;3.00;;;29.20;68.10;;;;;;5026330;28;20460;-82
2023/08/14 12:57:33;;;;;;;5.33;2.73;;;29.20;67.80;;;;;;5026164;28;20561;-82
2023/08/14 13:00:03;;;;;;;7.30;3.03;;;29.30;67.50;;;;;;5025174;28;20976;-82